Aérodrome :
LOGIN :

S'inscrire | Disclaimer

   EN    FR    IT 

 










Légende :    VFR   VFR Marginal   IFR   IFR Intensif   IFR Très Intensif
Visi : 
Plafond : 
>= 8 km
>= 3000ft
5 à 8 km
1000 à 3000 ft
1500m à 5 km
500 à 1000 ft
800 à 1500m
200 à 500 ft
< 800m
< 200 ft
Symboles :   Orages  Brouillard  Fortes neiges  Fortes précipitations  Vent > 20 kt
SIGMETs :   Divers  Orages  Givrage  Turbulence  Onde Orograph.  Cendres Volcan.






- Altitude de l'aérodrome : 622 ft
- Code IATA : BRS


EGGD - Bristol Int.

DERNIER METAR :
  • 242220Z AUTO 16009KT 9999 SCT010 OVC036 11/10 Q1008

METARs EXPIRÉS :
  • 242150Z AUTO 18007KT 140V210 9999 BKN009 OVC012 11/10 Q1009
  • 242120Z AUTO 17008KT 9999 BKN010 11/10 Q1009
  • 242050Z AUTO 18012KT 9999 BKN008 11/10 Q1009
  • 242020Z AUTO 16010KT 130V200 9999 OVC007 11/10 Q1009
  • 241950Z AUTO 16009KT 9999 OVC009 11/09 Q1009

TAF AMD TAF EGGD
Valide du 24 à 19h jusqu'au 25 à 18h UTC


241906Z 2419/2518 19012KT 9999 SCT012 BKN022
TEMPO 2419/2424 7000 -DZ BKN008
TEMPO 2500/2504 3000 RADZ BKN003
BECMG 2504/2506 26005KT 3000 -RA BR BKN002
PROB40
TEMPO 2504/2511 0500 FG DZ OVC001
BECMG 2510/2513 9999 NSW SCT020
ATIS : +44 1275 473 666



MET'MAP, la Météo Aéronautique d'un coup d'oeil ! - Copyright ORBIFLY Décembre 2007 - Disclaimer

ORBIFLY MET'MAP TEAM :

Programmation & Développement : Alexandra Zaïnal
Sur une idée originale de : Baudouin d'Aumeries
Assistance à la programmation : Marc-Olivier Méhu
Soutien technique & logistique : Manuel Goepfert

Contact : metmap@orbifly.com




SOURCES & CREDITS :

   NOAA